Pagrindinis puslapis
METAR-TAF:

METAR-TAF

Oro uostai :

Gambell, Aliaska, Jungtinės Amerikos Valstijos

platuma: 63-46N, ilguma: 171-44W, Aukštis: 8 m

Dabartinis oras

Ataskaita buvo paskelbta 24 minutes, ne 02:56 UTC
Vėjas 25 kt iš Pietryčių
Temperatūra -7°C
Drėgmė 93%
Slėgis 990 hPa
Matomumas: 8.0 km
Apsiniaukę ne aukštis 600 ft
rūkana

METAR: PAGM 200256Z AUTO 13025KT 5SM BR OVC006 M07/M08 A2923 RMK AO2 PK WND 12031/0235 SLP905 60000 T10671078 58006 FZRANO

Laikas: 18:20 (03:20 UTC)


TAF: trūkstamas

Orai ataskaitas ir orų prognozės (METAR, TAF).

turimą stotys yra geltonos ir raudonos taškus žemėlapyje.

Perkelti pele per norėdami pamatyti stoties vardą.

Tada spustelėkite, norėdami matyti oro stebėjimo ir prognozės.

Norėdami pakeisti žemėlapį: spustelėkite ant žalios mygtukų su juodo kryžiaus žemyn,; žalią mygtuką su brūkšneliu, jei norite nutolinti; arba žalių rodyklių gretimoms žemėlapius.


METAR-TAF: